KMOP

Details ICAO KMOP
Name MOUNT PLEASANT MUNI
Region United States
Timezone America/Detroit (UTC-4.0)
Plans Departing 7
Arriving 5
Stats Elevation 755 ft / 230 m (AMSL)
Location 43.621791° -84.738793°
Runways 2
Magnetic Variation 6.549° W
Sunrise 2018-05-25 10:06:18 UTC / 2018-05-25 06:06:18 Local
Sunset 2018-05-26 01:08:24 UTC / 2018-05-25 21:08:24 Local
Advertisement - Login to hide

Runways

ID Width Length Bearing (true) Bearing (mag) Surface Threshold Offset Overrun Length
05 160 ft / 49 m 2,497 ft / 761 m 57.20° 63.75° Grass 0 ft / 0 m 0 ft / 0 m
09 100 ft / 30 m 4,988 ft / 1,520 m 90.96° 97.51° Asphalt 0 ft / 0 m 0 ft / 0 m
23 160 ft / 49 m 2,497 ft / 761 m 237.21° 243.76° Grass 0 ft / 0 m 0 ft / 0 m
27 100 ft / 30 m 4,988 ft / 1,520 m 270.97° 277.52° Asphalt 0 ft / 0 m 0 ft / 0 m

Map

Weather


0- 5 10 15 20 25 30 35+ Temperature / ° C

Clouds and Precipitation
Forecast for 2018-05-25 18:00 UTC. Updated 4 hours ago

Ground ~20,000 ft ~40,000 ft Winds

METAR

KMOP 252116Z AUTO 22012G16KT 10SM CLR 31/15 A2980 RMK AO2 T03070148

TAF

Not found

Frequencies

Unicom 123.00 MHz CTAF/UNICOM
Approach 126.45 MHz SAGINAW APP/DEP
Warning: Do not use this data for real-world aviation or navigation. No guarantee of current accuracy is given.